Time;durP1;ratioP1;P1;durP2;ratioP2;P2;SDS_P1;SDS_P2;PMS_P1;PMS_P2;Temp;Humidity;BMP_temperature;BMP_pressure;BME280_temperature;BME280_humidity;BME280_pressure;Samples;Min_cycle;Max_cycle;Signal;HPM_P1;HPM_P2
2022/08/01 00:00:20;;;;;;;;;;;;;;;18.59;100.00;-25590.50;5094275;28;19923;-86
2022/08/01 00:02:45;;;;;;;;;;;;;;;18.48;100.00;-25587.44;5094540;28;19965;-75
2022/08/01 00:05:11;;;;;;;;;;;;;;;18.58;100.00;-25590.22;5092956;28;19965;-86
2022/08/01 00:07:36;;;;;;;;;;;;;;;18.58;100.00;-25590.22;5073828;28;19926;-86
2022/08/01 00:10:06;;;;;;;;;;;;;;;18.55;100.00;-25589.19;5082377;28;20010;-85
2022/08/01 00:12:32;;;;;;;;;;;;;;;18.55;100.00;-25589.19;5091037;28;20023;-85
2022/08/01 00:14:57;;;;;;;;;;;;;;;18.48;100.00;-25587.31;5069742;28;19967;-86
2022/08/01 00:17:22;;;;;;;;;;;;;;;18.54;100.00;-25588.91;5074472;28;19924;-86
2022/08/01 00:19:48;;;;;;;;;;;;;;;18.57;100.00;-25589.91;5074378;28;20431;-87
2022/08/01 00:22:13;;;;;;;;;;;;;;;18.59;100.00;-25590.34;5073219;28;20642;-86
2022/08/01 00:24:39;;;;;;;;;;;;;;;18.57;100.00;-25589.91;5077177;28;19917;-86
2022/08/01 00:27:05;;;;;;;;;;;;;;;18.57;100.00;-25589.78;5087559;28;19919;-78
2022/08/01 00:29:30;;;;;;;;;;;;;;;18.47;100.00;-25587.03;5090640;28;19934;-79
2022/08/01 00:31:55;;;;;;;;;;;;;;;18.51;100.00;-25588.03;5081663;28;20367;-75
2022/08/01 00:34:21;;;;;;;;;;;;;;;18.53;100.00;-25588.75;5081976;28;19920;-74
2022/08/01 00:36:46;;;;;;;;;;;;;;;18.50;100.00;-25587.75;5077336;28;20334;-75
2022/08/01 00:39:12;;;;;;;;;;;;;;;18.53;100.00;-25588.63;5105404;28;19928;-75
2022/08/01 00:41:37;;;;;;;;;;;;;;;18.54;100.00;-25588.91;5087143;28;20334;-79
2022/08/01 00:44:04;;;;;;;;;;;;;;;18.54;100.00;-25588.91;5077219;28;20262;-74
2022/08/01 00:46:29;;;;;;;;;;;;;;;18.54;100.00;-25589.03;5079132;28;19930;-76
2022/08/01 00:48:54;;;;;;;;;;;;;;;18.52;100.00;-25588.47;5075710;28;20070;-79
2022/08/01 00:51:20;;;;;;;;;;;;;;;18.51;100.00;-25588.19;5071483;28;19916;-74
2022/08/01 00:53:45;;;;;;;;;;;;;;;18.48;100.00;-25587.31;5079608;28;19920;-74
2022/08/01 00:56:10;;;;;;;;;;;;;;;18.50;100.00;-25587.88;5091399;28;20395;-75
2022/08/01 00:58:36;;;;;;;;;;;;;;;18.48;100.00;-25587.44;5090706;28;19973;-75
2022/08/01 01:01:02;;;;;;;;;;;;;;;18.51;100.00;-25588.03;5091456;28;20284;-75
2022/08/01 01:03:28;;;;;;;;;;;;;;;18.47;100.00;-25587.16;5082500;28;19921;-76
2022/08/01 01:06:07;;;;;;;;;;;;;;;18.45;100.00;-25586.44;5072635;28;19928;-78
2022/08/01 01:08:38;;;;;;;;;;;;;;;18.38;100.00;-25584.41;5087798;28;20015;-74
2022/08/01 01:11:32;;;;;;;;;;;;;;;18.46;100.00;-25586.72;5083886;28;20292;-75
2022/08/01 01:14:06;;;;;;;;;;;;;;;18.52;100.00;-25588.47;5063919;28;19951;-77
2022/08/01 01:16:33;;;;;;;;;;;;;;;18.49;100.00;-25587.59;5071985;28;20389;-79
2022/08/01 01:19:00;;;;;;;;;;;;;;;18.45;100.00;-25586.59;5077780;28;20391;-76
2022/08/01 01:21:35;;;;;;;;;;;;;;;18.51;100.00;-25588.19;5088418;28;19923;-81
2022/08/01 01:24:03;;;;;;;;;;;;;;;18.51;100.00;-25588.03;5077167;28;19955;-76
2022/08/01 01:26:28;;;;;;;;;;;;;;;18.50;100.00;-25587.88;5107131;28;19952;-83
2022/08/01 01:29:00;;;;;;;;;;;;;;;18.35;100.00;-25583.69;5105979;28;19977;-78
2022/08/01 01:31:26;;;;;;;;;;;;;;;18.36;100.00;-25583.97;5105120;28;20008;-80
2022/08/01 01:33:57;;;;;;;;;;;;;;;18.26;100.00;-25581.22;5072443;28;19948;-84
2022/08/01 01:36:24;;;;;;;;;;;;;;;18.24;100.00;-25580.66;5072458;28;19926;-83
2022/08/01 01:38:50;;;;;;;;;;;;;;;18.23;100.00;-25580.22;5071977;28;19917;-80
2022/08/01 01:41:17;;;;;;;;;;;;;;;18.18;100.00;-25578.91;5072526;28;19920;-83
2022/08/01 01:43:44;;;;;;;;;;;;;;;18.07;100.00;-25575.72;5073382;28;19966;-83
2022/08/01 01:46:12;;;;;;;;;;;;;;;18.11;100.00;-25576.91;5092593;28;20190;-83
2022/08/01 01:48:38;;;;;;;;;;;;;;;18.07;97.69;-25575.72;5092853;28;19962;-83
2022/08/01 01:51:04;;;;;;;;;;;;;;;17.98;91.57;-25573.28;5092715;28;19969;-83
2022/08/01 01:53:33;;;;;;;;;;;;;;;18.00;86.15;-25573.72;5092209;28;19916;-83
2022/08/01 01:56:00;;;;;;;;;;;;;;;18.03;83.71;-25574.56;5092762;28;19920;-82
2022/08/01 01:58:27;;;;;;;;;;;;;;;17.99;81.74;-25573.41;5092788;28;19951;-82
2022/08/01 02:00:54;;;;;;;;;;;;;;;18.00;79.63;-25573.84;5075842;28;20444;-81
2022/08/01 02:03:23;;;;;;;;;;;;;;;18.05;76.53;-25575.31;5070826;28;19920;-82
2022/08/01 02:05:51;;;;;;;;;;;;;;;18.06;75.44;-25575.59;5072067;28;19924;-81
2022/08/01 02:08:18;;;;;;;;;;;;;;;18.07;74.84;-25575.88;5071733;28;19923;-83
2022/08/01 02:13:32;;;;;;;;;;;;;;;17.93;72.67;-25571.81;5096898;28;19966;-83
2022/08/01 02:15:58;;;;;;;;;;;;;;;17.98;71.98;-25573.13;5096131;28;19924;-81
2022/08/01 02:18:23;;;;;;;;;;;;;;;18.01;71.67;-25574.00;5096349;28;19916;-82
2022/08/01 02:20:49;;;;;;;;;;;;;;;17.89;71.76;-25570.81;5096101;28;20376;-85
2022/08/01 02:23:15;;;;;;;;;;;;;;;17.81;71.56;-25568.50;5096015;28;19919;-81
2022/08/01 02:25:52;;;;;;;;;;;;;;;17.84;71.18;-25569.38;5095995;28;20482;-81
2022/08/01 02:28:22;;;;;;;;;;;;;;;17.86;71.01;-25569.94;5081778;28;20361;-82
2022/08/01 02:30:48;;;;;;;;;;;;;;;17.85;70.91;-25569.50;5096069;28;19920;-81
2022/08/01 02:33:22;;;;;;;;;;;;;;;17.83;70.69;-25569.06;5080800;28;20732;-81
2022/08/01 02:35:52;;;;;;;;;;;;;;;17.84;70.57;-25569.38;5075888;28;19917;-83
2022/08/01 02:38:20;;;;;;;;;;;;;;;17.90;70.54;-25571.09;5076399;28;19917;-83
2022/08/01 02:40:47;;;;;;;;;;;;;;;17.84;70.49;-25569.38;5084536;28;19920;-82
2022/08/01 02:43:18;;;;;;;;;;;;;;;17.75;70.29;-25566.75;5081014;28;19921;-82
2022/08/01 02:45:43;;;;;;;;;;;;;;;17.78;70.23;-25567.63;5075564;28;19916;-82
2022/08/01 02:48:12;;;;;;;;;;;;;;;17.73;70.20;-25566.31;5075112;28;19924;-82
2022/08/01 02:50:39;;;;;;;;;;;;;;;17.80;70.06;-25568.19;5075552;28;19936;-82
2022/08/01 02:53:07;;;;;;;;;;;;;;;17.74;70.03;-25566.59;5087053;28;19923;-77
2022/08/01 02:55:33;;;;;;;;;;;;;;;17.67;70.13;-25564.59;5090014;28;20270;-78
2022/08/01 02:58:00;;;;;;;;;;;;;;;17.59;70.24;-25562.41;5093470;28;19931;-78
2022/08/01 03:00:26;;;;;;;;;;;;;;;17.55;70.21;-25561.25;5086165;28;20056;-81
2022/08/01 03:02:54;;;;;;;;;;;;;;;17.48;70.28;-25559.22;5078433;28;20011;-79
2022/08/01 03:05:20;;;;;;;;;;;;;;;17.49;70.32;-25559.50;5074809;28;19984;-79
2022/08/01 03:07:45;;;;;;;;;;;;;;;17.46;70.28;-25558.50;5082290;28;19976;-82
2022/08/01 03:10:11;;;;;;;;;;;;;;;17.44;70.08;-25558.06;5093988;28;19916;-76
2022/08/01 03:12:40;;;;;;;;;;;;;;;17.41;70.06;-25557.19;5095146;28;19978;-81
2022/08/01 03:15:06;;;;;;;;;;;;;;;17.39;70.01;-25556.75;5075002;28;20292;-82
2022/08/01 03:17:31;;;;;;;;;;;;;;;17.41;69.88;-25557.19;5074751;28;20015;-84
2022/08/01 03:19:58;;;;;;;;;;;;;;;17.35;69.87;-25555.59;5073416;28;19916;-75
2022/08/01 03:22:25;;;;;;;;;;;;;;;17.35;69.84;-25555.44;5071994;28;20011;-75
2022/08/01 03:24:51;;;;;;;;;;;;;;;17.33;69.87;-25554.88;5072855;28;19916;-74
2022/08/01 03:27:19;;;;;;;;;;;;;;;17.32;69.96;-25554.59;5073151;28;19940;-74
2022/08/01 03:29:44;;;;;;;;;;;;;;;17.30;70.03;-25554.00;5072595;28;19916;-74
2022/08/01 03:32:11;;;;;;;;;;;;;;;17.30;70.00;-25554.00;5072424;28;20388;-73
2022/08/01 03:34:38;;;;;;;;;;;;;;;17.34;69.84;-25555.31;5072756;28;19927;-75
2022/08/01 03:37:09;;;;;;;;;;;;;;;17.40;69.73;-25556.91;5072571;28;19939;-81
2022/08/01 03:39:39;;;;;;;;;;;;;;;17.35;69.75;-25555.44;5073207;28;19924;-74
2022/08/01 03:42:12;;;;;;;;;;;;;;;17.36;69.70;-25555.88;5072469;28;20299;-74
2022/08/01 03:44:39;;;;;;;;;;;;;;;17.45;69.57;-25558.19;5071945;28;20315;-75
2022/08/01 03:47:06;;;;;;;;;;;;;;;17.49;69.54;-25559.50;5072519;28;19917;-78
2022/08/01 03:49:33;;;;;;;;;;;;;;;17.51;69.54;-25559.94;5072739;28;20349;-75
2022/08/01 03:52:00;;;;;;;;;;;;;;;17.51;69.62;-25560.09;5071323;28;19928;-75
2022/08/01 03:54:30;;;;;;;;;;;;;;;17.50;69.66;-25559.81;5072937;28;19916;-75
2022/08/01 03:56:57;;;;;;;;;;;;;;;17.48;69.56;-25559.06;5072361;28;19924;-74
2022/08/01 03:59:22;;;;;;;;;;;;;;;17.52;69.41;-25560.22;5071599;28;19921;-74
2022/08/01 04:01:48;;;;;;;;;;;;;;;17.54;69.36;-25560.97;5072106;28;20419;-75
2022/08/01 04:04:15;;;;;;;;;;;;;;;17.56;69.27;-25561.53;5071983;28;20295;-75
2022/08/01 04:06:41;;;;;;;;;;;;;;;17.63;69.21;-25563.28;5071480;28;19917;-75
2022/08/01 04:09:07;;;;;;;;;;;;;;;17.67;69.21;-25564.59;5072422;28;20269;-76
2022/08/01 04:11:32;;;;;;;;;;;;;;;17.63;69.35;-25563.28;5084836;28;19965;-75
2022/08/01 04:13:58;;;;;;;;;;;;;;;17.67;69.53;-25564.59;5091966;28;19927;-77
2022/08/01 04:16:25;;;;;;;;;;;;;;;17.56;69.85;-25561.53;5085117;28;19924;-78
2022/08/01 04:18:51;;;;;;;;;;;;;;;17.54;70.09;-25560.81;5072339;28;19920;-75
2022/08/01 04:21:18;;;;;;;;;;;;;;;17.55;70.55;-25561.09;5072172;28;19966;-77
2022/08/01 04:23:45;;;;;;;;;;;;;;;17.44;71.05;-25558.06;5072692;28;19916;-77
2022/08/01 04:26:12;;;;;;;;;;;;;;;17.48;71.23;-25559.22;5072430;28;19916;-80
2022/08/01 04:28:39;;;;;;;;;;;;;;;17.46;71.31;-25558.50;5072213;28;19963;-79
2022/08/01 04:31:06;;;;;;;;;;;;;;;17.39;71.35;-25556.63;5075553;28;19931;-78
2022/08/01 04:33:36;;;;;;;;;;;;;;;17.45;71.58;-25558.34;5075701;28;19955;-80
2022/08/01 04:36:02;;;;;;;;;;;;;;;17.47;71.79;-25558.78;5075936;28;20280;-79
2022/08/01 04:38:28;;;;;;;;;;;;;;;17.50;72.07;-25559.66;5076069;28;19938;-80
2022/08/01 04:40:56;;;;;;;;;;;;;;;17.48;72.82;-25559.22;5058306;28;21343;-83
2022/08/01 04:43:23;;;;;;;;;;;;;;;17.55;73.57;-25561.25;5076146;28;19938;-84
2022/08/01 04:45:50;;;;;;;;;;;;;;;17.56;74.60;-25561.41;5076351;28;20300;-82
2022/08/01 04:48:16;;;;;;;;;;;;;;;17.62;75.94;-25563.13;5075662;28;19916;-79
2022/08/01 04:50:41;;;;;;;;;;;;;;;17.66;76.81;-25564.16;5075241;28;19916;-75
2022/08/01 04:53:13;;;;;;;;;;;;;;;17.75;77.48;-25566.75;5074787;28;19939;-76
2022/08/01 04:55:38;;;;;;;;;;;;;;;17.80;78.48;-25568.19;5074183;28;19975;-76
2022/08/01 04:58:03;;;;;;;;;;;;;;;17.70;80.25;-25565.31;5074671;28;19985;-76
2022/08/01 05:00:29;;;;;;;;;;;;;;;17.59;79.78;-25562.25;5074735;28;20325;-76
2022/08/01 05:02:54;;;;;;;;;;;;;;;17.72;79.47;-25566.03;5073843;28;19916;-74
2022/08/01 05:05:20;;;;;;;;;;;;;;;17.71;79.58;-25565.75;5065608;28;19999;-75
2022/08/01 05:07:46;;;;;;;;;;;;;;;17.73;81.21;-25566.19;5054348;28;19916;-74
2022/08/01 05:10:11;;;;;;;;;;;;;;;17.86;82.96;-25569.78;5054470;28;19999;-81
2022/08/01 05:12:37;;;;;;;;;;;;;;;17.75;85.22;-25566.75;5054650;28;20229;-76
2022/08/01 05:15:03;;;;;;;;;;;;;;;17.75;85.44;-25566.75;5051498;28;19970;-83
2022/08/01 05:17:28;;;;;;;;;;;;;;;17.81;84.08;-25568.50;5046009;28;20250;-83
2022/08/01 05:19:53;;;;;;;;;;;;;;;17.71;86.15;-25565.75;5052325;28;20276;-80
2022/08/01 05:22:19;;;;;;;;;;;;;;;17.76;87.01;-25567.03;5055919;28;19958;-82
2022/08/01 05:24:44;;;;;;;;;;;;;;;17.97;87.10;-25572.84;5056277;28;20327;-81
2022/08/01 05:27:09;;;;;;;;;;;;;;;18.09;88.32;-25576.47;5048475;28;19921;-79
2022/08/01 05:29:35;;;;;;;;;;;;;;;18.17;89.44;-25578.63;5037001;28;20030;-78
2022/08/01 05:32:00;;;;;;;;;;;;;;;18.15;91.88;-25578.06;5041478;28;19947;-75
2022/08/01 05:34:26;;;;;;;;;;;;;;;18.35;92.05;-25583.53;5085334;28;19925;-76
2022/08/01 05:36:52;;;;;;;;;;;;;;;18.50;94.13;-25587.75;5053547;28;20036;-76
2022/08/01 05:39:17;;;;;;;;;;;;;;;18.83;94.68;-25597.13;5070600;28;19962;-75
2022/08/01 05:41:42;;;;;;;;;;;;;;;19.04;100.00;-25603.06;5083111;28;20026;-76
2022/08/01 05:44:08;;;;;;;;;;;;;;;19.42;100.00;-25613.63;5090063;28;19920;-75
2022/08/01 05:46:35;;;;;;;;;;;;;;;19.20;100.00;-25607.56;5089271;28;19916;-76
2022/08/01 05:49:01;;;;;;;;;;;;;;;19.12;100.00;-25605.38;5089638;28;20033;-77
2022/08/01 05:51:27;;;;;;;;;;;;;;;18.94;100.00;-25600.31;5091371;28;19920;-77
2022/08/01 05:53:53;;;;;;;;;;;;;;;18.86;100.00;-25598.00;5085743;28;19928;-76
2022/08/01 05:56:19;;;;;;;;;;;;;;;18.86;100.00;-25598.00;5078430;28;19924;-75
2022/08/01 05:58:45;;;;;;;;;;;;;;;18.62;100.00;-25591.22;5070070;28;19923;-77
2022/08/01 06:01:10;;;;;;;;;;;;;;;18.68;100.00;-25592.81;5069332;28;20018;-77
2022/08/01 06:03:38;;;;;;;;;;;;;;;18.55;100.00;-25589.34;5076401;28;19923;-76
2022/08/01 06:06:04;;;;;;;;;;;;;;;18.53;100.00;-25588.75;5069597;28;19920;-75
2022/08/01 06:08:30;;;;;;;;;;;;;;;18.52;100.00;-25588.47;5070805;28;19928;-77
2022/08/01 06:10:56;;;;;;;;;;;;;;;18.39;100.00;-25584.84;5088280;28;20406;-80
2022/08/01 06:13:21;;;;;;;;;;;;;;;18.40;100.00;-25585.00;5082002;28;20289;-77
2022/08/01 06:15:47;;;;;;;;;;;;;;;18.28;100.00;-25581.81;5069903;28;20389;-79
2022/08/01 06:18:13;;;;;;;;;;;;;;;18.14;100.00;-25577.75;5069386;28;20292;-76
2022/08/01 06:20:38;;;;;;;;;;;;;;;18.18;100.00;-25578.91;5071007;28;19952;-79
2022/08/01 06:23:05;;;;;;;;;;;;;;;18.05;100.00;-25575.31;5093038;28;20476;-78
2022/08/01 06:25:31;;;;;;;;;;;;;;;18.15;100.00;-25578.06;5050580;28;20024;-82
2022/08/01 06:27:57;;;;;;;;;;;;;;;18.10;100.00;-25576.59;5077418;28;19928;-76
2022/08/01 06:30:23;;;;;;;;;;;;;;;18.27;100.00;-25581.53;5082051;28;19927;-78
2022/08/01 06:32:48;;;;;;;;;;;;;;;18.27;100.00;-25581.53;5090347;28;19920;-78
2022/08/01 06:35:14;;;;;;;;;;;;;;;18.22;100.00;-25580.06;5088202;28;19978;-77
2022/08/01 06:37:42;;;;;;;;;;;;;;;18.22;100.00;-25580.06;5070269;28;19974;-80
2022/08/01 06:40:09;;;;;;;;;;;;;;;18.14;100.00;-25577.63;5069759;28;20042;-80
2022/08/01 06:42:37;;;;;;;;;;;;;;;18.13;100.00;-25577.47;5083108;28;19966;-82
2022/08/01 06:45:06;;;;;;;;;;;;;;;18.17;100.00;-25578.50;5070448;28;19963;-81
2022/08/01 06:47:32;;;;;;;;;;;;;;;18.28;100.00;-25581.66;5070284;28;19920;-80
2022/08/01 06:49:57;;;;;;;;;;;;;;;18.21;100.00;-25579.63;5070427;28;20515;-80
2022/08/01 06:52:23;;;;;;;;;;;;;;;18.22;100.00;-25580.06;5071142;28;20327;-77
2022/08/01 06:54:50;;;;;;;;;;;;;;;18.29;100.00;-25582.09;5070255;28;19948;-77
2022/08/01 06:57:15;;;;;;;;;;;;;;;18.47;100.00;-25587.03;5071834;28;19917;-80
2022/08/01 06:59:41;;;;;;;;;;;;;;;18.44;100.00;-25586.31;5074598;28;19928;-81
2022/08/01 07:02:07;;;;;;;;;;;;;;;18.46;100.00;-25586.88;5107237;28;19921;-80
2022/08/01 07:04:32;;;;;;;;;;;;;;;18.72;100.00;-25593.97;5108363;28;19928;-80
2022/08/01 07:06:58;;;;;;;;;;;;;;;18.54;100.00;-25589.03;5108455;28;19942;-81
2022/08/01 07:09:24;;;;;;;;;;;;;;;18.51;100.00;-25588.19;5107967;28;19922;-79
2022/08/01 07:11:52;;;;;;;;;;;;;;;18.20;100.00;-25579.34;5109081;28;19912;-79
2022/08/01 07:14:18;;;;;;;;;;;;;;;18.04;100.00;-25574.88;5107591;28;20015;-84
2022/08/01 07:16:44;;;;;;;;;;;;;;;17.79;100.00;-25567.75;5107899;28;20023;-79
2022/08/01 07:19:09;;;;;;;;;;;;;;;17.57;100.00;-25561.84;5107452;28;20380;-76
2022/08/01 07:21:34;;;;;;;;;;;;;;;17.50;100.00;-25559.66;5107580;28;19921;-80
2022/08/01 07:23:59;;;;;;;;;;;;;;;17.48;100.00;-25559.22;5106917;28;19917;-77
2022/08/01 07:26:26;;;;;;;;;;;;;;;17.51;100.00;-25560.09;5090434;28;20007;-81
2022/08/01 07:28:51;;;;;;;;;;;;;;;17.45;100.00;-25558.34;5107442;28;19920;-80
2022/08/01 07:31:17;;;;;;;;;;;;;;;17.44;100.00;-25558.06;5107418;28;20345;-81
2022/08/01 07:33:42;;;;;;;;;;;;;;;17.41;100.00;-25557.34;5107293;28;19928;-83
2022/08/01 07:36:07;;;;;;;;;;;;;;;17.36;100.00;-25555.75;5097086;28;20400;-85
2022/08/01 07:38:32;;;;;;;;;;;;;;;17.48;100.00;-25559.06;5076991;28;19927;-85
2022/08/01 07:40:58;;;;;;;;;;;;;;;17.51;100.00;-25559.94;5075571;28;19976;-82
2022/08/01 07:43:23;;;;;;;;;;;;;;;17.41;100.00;-25557.34;5074632;28;19920;-82
2022/08/01 07:45:48;;;;;;;;;;;;;;;17.44;100.00;-25557.91;5074716;28;20284;-77
2022/08/01 07:48:14;;;;;;;;;;;;;;;17.39;100.00;-25556.75;5084126;28;19924;-80
2022/08/01 07:50:39;;;;;;;;;;;;;;;17.47;100.00;-25558.94;5087707;28;20436;-82
2022/08/01 07:53:06;;;;;;;;;;;;;;;17.53;100.00;-25560.66;5078214;28;19916;-81
2022/08/01 07:55:31;;;;;;;;;;;;;;;17.41;100.00;-25557.19;5079173;28;19964;-82
2022/08/01 07:57:56;;;;;;;;;;;;;;;17.38;100.00;-25556.31;5073022;28;19970;-78
2022/08/01 08:00:21;;;;;;;;;;;;;;;17.37;100.00;-25556.03;5082714;28;19924;-82
2022/08/01 08:02:47;;;;;;;;;;;;;;;17.41;100.00;-25557.34;5094045;28;20356;-81
2022/08/01 08:05:12;;;;;;;;;;;;;;;17.45;100.00;-25558.19;5093251;28;20469;-81
2022/08/01 08:07:38;;;;;;;;;;;;;;;17.41;100.00;-25557.19;5092433;28;19947;-83
2022/08/01 08:10:04;;;;;;;;;;;;;;;17.45;100.00;-25558.34;5088082;28;19959;-84
2022/08/01 08:12:30;;;;;;;;;;;;;;;17.65;100.00;-25563.84;5093603;28;20387;-79
2022/08/01 08:14:58;;;;;;;;;;;;;;;17.66;100.00;-25564.16;5091362;28;19920;-83
2022/08/01 08:17:23;;;;;;;;;;;;;;;17.70;100.00;-25565.31;5093504;28;19962;-79
2022/08/01 08:19:48;;;;;;;;;;;;;;;17.77;100.00;-25567.34;5091543;28;19982;-82
2022/08/01 08:22:13;;;;;;;;;;;;;;;18.12;100.00;-25577.31;5093436;28;19927;-75
2022/08/01 08:24:40;;;;;;;;;;;;;;;18.17;100.00;-25578.50;5093625;28;19920;-82
2022/08/01 08:27:05;;;;;;;;;;;;;;;18.21;100.00;-25579.78;5090770;28;19962;-83
2022/08/01 08:29:32;;;;;;;;;;;;;;;18.29;100.00;-25582.09;5073650;28;19916;-82
2022/08/01 08:31:59;;;;;;;;;;;;;;;18.64;100.00;-25591.78;5072880;28;19924;-83
2022/08/01 08:34:27;;;;;;;;;;;;;;;18.66;100.00;-25592.50;5074121;28;19939;-84
2022/08/01 08:36:55;;;;;;;;;;;;;;;18.81;100.00;-25596.72;5073537;28;19948;-85
2022/08/01 08:39:21;;;;;;;;;;;;;;;18.85;100.00;-25597.72;5072103;28;19923;-77
2022/08/01 08:41:47;;;;;;;;;;;;;;;18.95;100.00;-25600.47;5087670;28;19948;-78
2022/08/01 08:44:15;;;;;;;;;;;;;;;19.31;100.00;-25610.72;5086915;28;19924;-76
2022/08/01 08:46:42;;;;;;;;;;;;;;;19.68;100.00;-25621.13;5091539;28;19969;-78
2022/08/01 08:49:08;;;;;;;;;;;;;;;19.62;100.00;-25619.25;5091817;28;19993;-78
2022/08/01 08:51:34;;;;;;;;;;;;;;;19.62;100.00;-25619.38;5092614;28;20523;-78
2022/08/01 08:54:02;;;;;;;;;;;;;;;19.79;100.00;-25624.00;5092025;28;20420;-78
2022/08/01 08:56:33;;;;;;;;;;;;;;;20.59;100.00;-25646.50;5093050;28;19951;-82
2022/08/01 08:59:00;;;;;;;;;;;;;;;20.61;100.00;-25647.06;5090981;28;19921;-81
2022/08/01 09:01:25;;;;;;;;;;;;;;;20.96;100.00;-25656.88;5092376;28;19923;-79
2022/08/01 09:03:53;;;;;;;;;;;;;;;21.21;100.00;-22341.63;5081784;28;19916;-78
2022/08/01 09:06:19;;;;;;;;;;;;;;;21.37;100.00;-14362.94;5074187;28;19928;-80
2022/08/01 09:08:44;;;;;;;;;;;;;;;21.23;100.00;-4028.59;5081635;28;19916;-81
2022/08/01 09:11:10;;;;;;;;;;;;;;;21.79;100.00;-2688.78;5071409;28;19916;-82
2022/08/01 09:14:05;;;;;;;;;;;;;;;21.91;100.00;1994.50;5072801;28;19917;-81
2022/08/01 09:16:32;;;;;;;;;;;;;;;21.79;100.00;18422.38;5068394;28;19920;-79
2022/08/01 09:19:16;;;;;;;;;;;;;;;21.12;100.00;25113.44;5092191;28;20395;-78
2022/08/01 09:21:56;;;;;;;;;;;;;;;21.08;100.00;14032.09;5089784;28;19916;-79
2022/08/01 09:24:22;;;;;;;;;;;;;;;21.29;100.00;13368.84;5090611;28;19951;-80
2022/08/01 09:26:49;;;;;;;;;;;;;;;20.82;100.00;16369.84;5091258;28;19920;-84
2022/08/01 09:29:22;;;;;;;;;;;;;;;20.62;100.00;16027.19;5090324;28;20272;-79
2022/08/01 09:31:49;;;;;;;;;;;;;;;20.38;100.00;12668.97;5091280;28;19920;-80
2022/08/01 09:34:16;;;;;;;;;;;;;;;20.48;100.00;5981.28;5090963;28;19920;-83
2022/08/01 09:36:53;;;;;;;;;;;;;;;20.55;100.00;10331.09;5090237;28;19962;-79
2022/08/01 09:39:19;;;;;;;;;;;;;;;21.30;100.00;4326.09;5091198;28;20010;-81
2022/08/01 09:41:45;;;;;;;;;;;;;;;21.42;100.00;11361.22;5090828;28;19923;-80
2022/08/01 09:44:12;;;;;;;;;;;;;;;21.26;100.00;14709.06;5090368;28;19999;-79
2022/08/01 09:46:48;;;;;;;;;;;;;;;21.11;100.00;19737.19;5091373;28;20307;-81
2022/08/01 09:49:13;;;;;;;;;;;;;;;20.63;100.00;23744.44;5090980;28;19924;-82
2022/08/01 09:51:39;;;;;;;;;;;;;;;20.25;100.00;18023.59;5090961;28;20356;-79
2022/08/01 09:54:05;;;;;;;;;;;;;;;20.44;100.00;10662.66;5090995;28;19942;-84
2022/08/01 09:56:42;;;;;;;;;;;;;;;20.84;100.00;9335.00;5090492;28;20375;-84
2022/08/01 09:59:07;;;;;;;;;;;;;;;21.42;100.00;25465.56;5090853;28;20338;-80
2022/08/01 10:01:43;;;;;;;;;;;;;;;22.27;100.00;33941.03;5094400;28;19912;-84
2022/08/01 10:04:17;;;;;;;;;;;;;;;21.72;100.00;48097.38;5093713;28;20359;-81
2022/08/01 10:06:44;;;;;;;;;;;;;;;21.73;100.00;49452.63;5092996;28;20296;-82
2022/08/01 10:09:10;;;;;;;;;;;;;;;21.96;100.00;29536.22;5094126;28;19927;-82
2022/08/01 10:11:38;;;;;;;;;;;;;;;22.18;100.00;56276.69;5092359;28;20011;-83
2022/08/01 10:14:06;;;;;;;;;;;;;;;22.05;100.00;105094.97;5090811;28;19923;-85
2022/08/01 10:16:33;;;;;;;;;;;;;;;22.27;100.00;119249.84;5092112;28;19974;-83
2022/08/01 10:18:59;;;;;;;;;;;;;;;22.14;100.00;148285.28;5091270;28;19919;-82
2022/08/01 10:21:26;;;;;;;;;;;;;;;22.32;100.00;148330.25;5092739;28;20336;-82
2022/08/01 10:23:53;;;;;;;;;;;;;;;21.78;100.00;148196.84;5091254;28;19916;-82
2022/08/01 10:26:19;;;;;;;;;;;;;;;21.93;100.00;148234.00;5093017;28;20372;-79
2022/08/01 10:28:47;;;;;;;;;;;;;;;22.19;100.00;148299.41;5096368;28;19951;-82
2022/08/01 10:31:13;;;;;;;;;;;;;;;22.20;100.00;148302.00;5090396;28;19920;-82
2022/08/01 10:33:41;;;;;;;;;;;;;;;22.18;100.00;148296.81;5094293;28;19931;-83
2022/08/01 10:36:06;;;;;;;;;;;;;;;21.82;100.00;148207.06;5095959;28;20365;-83
2022/08/01 10:38:31;;;;;;;;;;;;;;;21.21;100.00;148054.47;5094716;28;20019;-81
2022/08/01 10:40:59;;;;;;;;;;;;;;;21.55;100.00;148137.81;5094301;28;19923;-79
2022/08/01 10:43:25;;;;;;;;;;;;;;;21.74;100.00;148185.28;5095090;28;19938;-78
2022/08/01 10:45:51;;;;;;;;;;;;;;;21.74;100.00;148185.28;5094058;28;20322;-78
2022/08/01 10:48:31;;;;;;;;;;;;;;;21.62;100.00;148155.78;5093575;28;19969;-78
2022/08/01 10:50:58;;;;;;;;;;;;;;;21.62;100.00;148157.03;5093313;28;20386;-78
2022/08/01 10:53:26;;;;;;;;;;;;;;;22.22;100.00;148307.09;5085487;28;20382;-82
2022/08/01 10:56:00;;;;;;;;;;;;;;;22.49;100.00;148373.84;5077690;28;19920;-78
2022/08/01 10:58:40;;;;;;;;;;;;;;;22.16;100.00;148290.44;5109560;28;19916;-76
2022/08/01 11:01:14;;;;;;;;;;;;;;;22.29;100.00;148322.50;5073702;28;19974;-80
2022/08/01 11:03:40;;;;;;;;;;;;;;;21.82;100.00;148205.78;5109181;28;20376;-80
2022/08/01 11:06:06;;;;;;;;;;;;;;;21.80;100.00;148201.94;5111911;28;19931;-80
2022/08/01 11:08:34;;;;;;;;;;;;;;;22.14;100.00;148285.28;5074554;28;19966;-75
2022/08/01 11:11:04;;;;;;;;;;;;;;;22.46;100.00;148366.16;5082614;28;19974;-83
2022/08/01 11:13:52;;;;;;;;;;;;;;;21.64;100.00;148160.91;5075411;28;19924;-80
2022/08/01 11:16:25;;;;;;;;;;;;;;;21.21;100.00;148053.16;5074315;28;19920;-77
2022/08/01 11:18:51;;;;;;;;;;;;;;;21.40;100.00;148100.63;5093828;28;19927;-79
2022/08/01 11:21:19;;;;;;;;;;;;;;;21.49;100.00;148125.00;5095484;28;20295;-81
2022/08/01 11:23:52;;;;;;;;;;;;;;;21.19;100.00;148049.31;5094879;28;19920;-80
2022/08/01 11:26:17;;;;;;;;;;;;;;;20.93;100.00;147985.25;5095973;28;19961;-81
2022/08/01 11:28:44;;;;;;;;;;;;;;;21.10;100.00;148026.22;5093814;28;20276;-80
2022/08/01 11:31:11;;;;;;;;;;;;;;;21.36;100.00;148091.59;5095455;28;19912;-81
2022/08/01 11:33:39;;;;;;;;;;;;;;;21.92;100.00;148230.16;5093723;28;20309;-79
2022/08/01 11:36:13;;;;;;;;;;;;;;;22.38;100.00;148345.63;5095318;28;19916;-80
2022/08/01 11:38:43;;;;;;;;;;;;;;;22.63;100.00;148407.22;5094026;28;19928;-80
2022/08/01 11:41:23;;;;;;;;;;;;;;;22.20;100.00;148302.00;5095068;28;19923;-81
2022/08/01 11:43:55;;;;;;;;;;;;;;;22.19;100.00;148299.41;5097258;28;19924;-82
2022/08/01 11:46:39;;;;;;;;;;;;;;;21.95;100.00;148239.09;5095824;28;20280;-79
2022/08/01 11:49:23;;;;;;;;;;;;;;;22.05;100.00;148264.78;5094658;28;19916;-81
2022/08/01 11:51:56;;;;;;;;;;;;;;;22.17;100.00;148294.28;5086757;28;19968;-83
2022/08/01 11:54:28;;;;;;;;;;;;;;;22.20;100.00;148300.66;5070152;28;20346;-82
2022/08/01 11:56:57;;;;;;;;;;;;;;;22.05;100.00;148264.78;5052982;28;19917;-79
2022/08/01 11:59:23;;;;;;;;;;;;;;;22.19;100.00;148299.41;5090487;28;19924;-79
2022/08/01 12:01:48;;;;;;;;;;;;;;;22.24;100.00;148312.22;5093794;28;19943;-81
2022/08/01 12:04:16;;;;;;;;;;;;;;;22.75;100.00;148438.00;5091773;28;19920;-81
2022/08/01 12:06:42;;;;;;;;;;;;;;;22.53;100.00;148384.13;5089739;28;20007;-83
2022/08/01 12:09:21;;;;;;;;;;;;;;;22.42;100.00;148355.91;5107438;28;20376;-80
2022/08/01 12:11:47;;;;;;;;;;;;;;;22.99;100.00;148498.31;5107160;28;20065;-82
2022/08/01 12:14:19;;;;;;;;;;;;;;;22.91;100.00;148479.06;5108241;28;20452;-79
2022/08/01 12:16:52;;;;;;;;;;;;;;;22.63;100.00;148407.22;5107508;28;19923;-78
2022/08/01 12:19:24;;;;;;;;;;;;;;;22.74;100.00;148436.69;5074008;28;19920;-79
2022/08/01 12:22:25;;;;;;;;;;;;;;;22.87;100.00;148467.50;5073499;28;19920;-81
2022/08/01 12:24:50;;;;;;;;;;;;;;;22.78;100.00;148445.72;5034637;28;20015;-79
2022/08/01 12:27:30;;;;;;;;;;;;;;;22.42;100.00;148355.91;5064259;28;20480;-80
2022/08/01 12:29:57;;;;;;;;;;;;;;;22.04;100.00;148262.19;5089813;28;19924;-78
2022/08/01 12:32:30;;;;;;;;;;;;;;;21.81;100.00;148204.53;5076974;28;19925;-81
2022/08/01 12:34:56;;;;;;;;;;;;;;;21.73;100.00;148183.97;5079160;28;20287;-81